Time;durP1;ratioP1;P1;durP2;ratioP2;P2;SDS_P1;SDS_P2;PMS_P1;PMS_P2;Temp;Humidity;BMP_temperature;BMP_pressure;BME280_temperature;BME280_humidity;BME280_pressure;Samples;Min_cycle;Max_cycle;Signal;HPM_P1;HPM_P2
2022/08/27 00:00:15;;;;;;;17.52;8.40;;;;;;;20.85;100.00;99305.56;1732329;82;21091;-70
2022/08/27 00:02:43;;;;;;;16.05;9.15;;;;;;;20.84;100.00;99310.05;1729160;82;21043;-70
2022/08/27 00:05:11;;;;;;;19.42;9.13;;;;;;;20.81;100.00;99299.69;1718359;82;21597;-71
2022/08/27 00:07:38;;;;;;;16.40;8.65;;;;;;;20.77;100.00;99298.77;1730308;82;21389;-70
2022/08/27 00:10:07;;;;;;;12.68;8.70;;;;;;;20.75;100.00;99301.09;1723945;82;21051;-70
2022/08/27 00:12:34;;;;;;;11.53;7.90;;;;;;;20.72;100.00;99299.03;1730799;82;21363;-71
2022/08/27 00:15:03;;;;;;;12.60;8.63;;;;;;;20.68;100.00;99298.12;1694978;82;21616;-71
2022/08/27 00:17:30;;;;;;;15.32;8.98;;;;;;;20.63;100.00;99302.49;1721869;82;21038;-71
2022/08/27 00:19:57;;;;;;;16.62;9.73;;;;;;;20.59;100.00;99303.77;1721301;82;21602;-71
2022/08/27 00:22:23;;;;;;;12.78;8.58;;;;;;;20.57;100.00;99305.28;1729047;82;21035;-71
2022/08/27 00:24:49;;;;;;;13.80;8.93;;;;;;;20.52;100.00;99303.55;1735352;82;21003;-71
2022/08/27 00:27:16;;;;;;;14.68;7.90;;;;;;;20.48;100.00;99302.63;1726594;82;21050;-71
2022/08/27 00:29:42;;;;;;;13.25;7.80;;;;;;;20.46;100.00;99308.28;1719773;82;21450;-71
2022/08/27 00:32:09;;;;;;;16.10;7.90;;;;;;;20.43;100.00;99304.83;1725587;82;21054;-70
2022/08/27 00:34:36;;;;;;;14.35;7.87;;;;;;;20.40;100.00;99302.77;1731395;82;20991;-70
2022/08/27 00:37:05;;;;;;;13.13;7.90;;;;;;;20.40;100.00;99316.59;1718713;82;21049;-70
2022/08/27 00:39:33;;;;;;;11.50;8.00;;;;;;;20.40;100.00;99302.20;1738755;82;20960;-71
2022/08/27 00:41:59;;;;;;;12.33;7.85;;;;;;;20.39;100.00;99301.15;1731564;82;21091;-70
2022/08/27 00:44:27;;;;;;;17.25;8.33;;;;;;;20.38;100.00;99301.72;1727237;82;21499;-71
2022/08/27 00:47:00;;;;;;;15.85;8.03;;;;;;;20.38;100.00;99298.95;1732613;82;21118;-70
2022/08/27 00:49:37;;;;;;;15.98;7.62;;;;;;;20.39;100.00;99308.06;1723917;82;21462;-70
2022/08/27 00:52:15;;;;;;;12.68;7.60;;;;;;;20.40;100.00;99307.73;1718925;82;21122;-70
2022/08/27 00:54:42;;;;;;;20.00;8.15;;;;;;;20.40;100.00;99298.05;1730835;82;21035;-70
2022/08/27 00:57:08;;;;;;;12.07;7.40;;;;;;;20.40;100.00;99304.96;1690264;82;21114;-71
2022/08/27 00:59:35;;;;;;;14.05;7.65;;;;;;;20.40;100.00;99298.05;1691507;84;21070;-71
2022/08/27 01:02:20;;;;;;;13.78;7.33;;;;;;;20.42;100.00;99299.06;1682532;84;21083;-71
2022/08/27 01:04:57;;;;;;;11.65;7.37;;;;;;;20.41;100.00;99297.45;1685663;84;21015;-71
2022/08/27 01:07:24;;;;;;;9.83;6.72;;;;;;;20.39;100.00;99299.19;1685709;84;21082;-71
2022/08/27 01:09:51;;;;;;;11.57;7.67;;;;;;;20.38;100.00;99297.57;1683493;84;21636;-71
2022/08/27 01:12:18;;;;;;;15.15;7.62;;;;;;;20.40;100.00;99310.48;1693870;84;21110;-72
2022/08/27 01:14:45;;;;;;;12.70;6.42;;;;;;;20.39;100.00;99300.58;1690605;84;20984;-72
2022/08/27 01:17:12;;;;;;;12.45;7.05;;;;;;;20.39;100.00;99303.34;1675995;84;21150;-71
2022/08/27 01:19:52;;;;;;;11.35;6.85;;;;;;;20.39;100.00;99299.77;1684238;84;21046;-71
2022/08/27 01:22:49;;;;;;;11.30;6.72;;;;;;;20.38;100.00;99300.91;1674783;84;21558;-72
2022/08/27 01:25:16;;;;;;;10.38;6.60;;;;;;;20.38;100.00;99307.82;1676915;84;21094;-71
2022/08/27 01:27:44;;;;;;;10.35;6.85;;;;;;;20.34;100.00;99304.38;1692464;84;21098;-72
2022/08/27 01:30:12;;;;;;;12.47;7.08;;;;;;;20.33;100.00;99303.35;1724605;82;21030;-72
2022/08/27 01:32:39;;;;;;;15.08;6.97;;;;;;;20.32;100.00;99299.78;1736482;82;21153;-70
2022/08/27 01:35:08;;;;;;;12.45;7.00;;;;;;;20.30;100.00;99301.26;1728816;82;21728;-72
2022/08/27 01:37:34;;;;;;;13.20;7.33;;;;;;;20.28;100.00;99302.19;1718603;82;22135;-72
2022/08/27 01:40:01;;;;;;;12.40;7.05;;;;;;;20.27;100.00;99301.92;1721815;82;21436;-71
2022/08/27 01:42:31;;;;;;;13.58;7.30;;;;;;;20.24;100.00;99300.66;1729506;82;21561;-72
2022/08/27 01:45:01;;;;;;;10.40;6.85;;;;;;;20.20;100.00;99301.13;1728595;82;21627;-71
2022/08/27 01:47:27;;;;;;;10.05;7.25;;;;;;;20.14;100.00;99295.61;1726133;82;21700;-71
2022/08/27 01:49:54;;;;;;;10.20;6.80;;;;;;;20.10;100.00;99289.72;1729349;82;21031;-72
2022/08/27 01:52:23;;;;;;;14.63;7.00;;;;;;;20.07;100.00;99293.99;1743422;82;21066;-72
2022/08/27 01:54:50;;;;;;;11.15;7.03;;;;;;;20.05;100.00;99294.89;1731939;82;21383;-71
2022/08/27 01:57:18;;;;;;;12.70;7.58;;;;;;;20.02;100.00;99286.48;1730240;82;21538;-71
2022/08/27 01:59:44;;;;;;;11.50;7.55;;;;;;;19.98;100.00;99287.75;1744736;82;21027;-72
2022/08/27 02:02:12;;;;;;;9.03;6.47;;;;;;;19.96;100.00;99283.16;1733464;82;21652;-71
2022/08/27 02:04:39;;;;;;;11.20;6.97;;;;;;;19.96;100.00;99296.16;1731615;82;21451;-71
2022/08/27 02:07:05;;;;;;;12.40;7.20;;;;;;;19.95;100.00;99293.16;1731976;82;21070;-70
2022/08/27 02:09:33;;;;;;;12.00;7.00;;;;;;;19.93;100.00;99290.77;1732125;82;20978;-71
2022/08/27 02:12:00;;;;;;;12.68;7.22;;;;;;;19.91;100.00;99292.27;1732224;82;21091;-72
2022/08/27 02:14:27;;;;;;;12.15;7.40;;;;;;;19.90;100.00;99299.74;1722561;83;20996;-72
2022/08/27 02:16:54;;;;;;;16.17;7.17;;;;;;;19.89;100.00;99291.22;1731803;82;21039;-71
2022/08/27 02:19:20;;;;;;;12.68;7.42;;;;;;;19.88;100.00;99302.02;1740764;82;21533;-73
2022/08/27 02:21:48;;;;;;;13.93;7.45;;;;;;;19.87;100.00;99300.43;1740539;82;21019;-72
2022/08/27 02:24:14;;;;;;;13.22;7.40;;;;;;;19.85;100.00;99309.62;1729202;82;22396;-72
2022/08/27 02:26:40;;;;;;;11.12;6.90;;;;;;;19.82;100.00;99302.83;1733425;82;21502;-72
2022/08/27 02:29:07;;;;;;;10.48;7.00;;;;;;;19.82;100.00;99300.07;1734441;82;21493;-71
2022/08/27 02:31:34;;;;;;;11.00;6.97;;;;;;;19.80;100.00;99307.87;1736373;82;21094;-71
2022/08/27 02:34:00;;;;;;;11.85;7.37;;;;;;;19.78;100.00;99308.00;1741876;82;21035;-72
2022/08/27 02:36:27;;;;;;;13.53;7.28;;;;;;;19.75;100.00;99312.83;1739888;82;21161;-71
2022/08/27 02:38:54;;;;;;;10.60;7.22;;;;;;;19.71;100.00;99305.80;1728911;82;21019;-72
2022/08/27 02:41:20;;;;;;;11.65;7.10;;;;;;;19.71;100.00;99309.95;1728874;82;21651;-72
2022/08/27 02:43:47;;;;;;;13.55;7.00;;;;;;;19.69;100.00;99305.35;1737856;82;21003;-72
2022/08/27 02:46:14;;;;;;;11.97;7.10;;;;;;;19.68;100.00;99307.87;1732919;82;21058;-71
2022/08/27 02:48:41;;;;;;;11.03;7.80;;;;;;;19.66;100.00;99306.01;1730398;82;20988;-71
2022/08/27 02:51:07;;;;;;;11.73;7.37;;;;;;;19.64;100.00;99311.08;1719621;82;21524;-72
2022/08/27 02:53:35;;;;;;;13.15;6.83;;;;;;;19.63;100.00;99305.31;1725636;82;20992;-72
2022/08/27 02:56:03;;;;;;;10.08;7.30;;;;;;;19.63;100.00;99303.12;1733780;82;21341;-71
2022/08/27 02:58:30;;;;;;;12.00;7.70;;;;;;;19.63;100.00;99300.37;1716438;82;21483;-71
2022/08/27 03:00:56;;;;;;;12.03;7.42;;;;;;;19.63;100.00;99298.41;1713488;82;21872;-71
2022/08/27 03:03:23;;;;;;;11.35;6.80;;;;;;;19.63;100.00;99300.37;1728949;82;21035;-70
2022/08/27 03:05:50;;;;;;;10.43;7.20;;;;;;;19.62;100.00;99296.02;1712988;82;21097;-72
2022/08/27 03:08:16;;;;;;;12.78;7.83;;;;;;;19.61;100.00;99295.20;1714776;82;21047;-71
2022/08/27 03:10:43;;;;;;;12.37;8.08;;;;;;;19.59;100.00;99290.58;1724513;82;21031;-71
2022/08/27 03:13:11;;;;;;;12.05;7.40;;;;;;;19.57;100.00;99301.17;1723924;82;21015;-70
2022/08/27 03:15:37;;;;;;;10.55;7.35;;;;;;;19.56;100.00;99285.74;1714968;82;21059;-70
2022/08/27 03:18:19;;;;;;;12.25;7.75;;;;;;;19.54;100.00;99295.52;1729049;82;21550;-70
2022/08/27 03:20:51;;;;;;;10.20;7.00;;;;;;;19.54;100.00;99296.34;1713318;82;21098;-70
2022/08/27 03:23:24;;;;;;;14.43;7.22;;;;;;;19.55;100.00;99295.77;1714732;82;21626;-69
2022/08/27 03:25:54;;;;;;;13.53;7.03;;;;;;;19.55;100.00;99295.77;1713179;82;21605;-69
2022/08/27 03:28:26;;;;;;;13.08;8.38;;;;;;;19.54;100.00;99303.81;1718218;82;21062;-70
2022/08/27 03:30:57;;;;;;;17.52;8.40;;;;;;;19.52;100.00;99302.75;1730211;82;21123;-70
2022/08/27 03:33:25;;;;;;;16.23;8.78;;;;;;;19.50;100.00;99292.64;1723957;82;21596;-70
2022/08/27 03:35:51;;;;;;;15.45;10.18;;;;;;;19.47;100.00;99297.47;1724826;82;21060;-70
2022/08/27 03:38:18;;;;;;;13.55;8.93;;;;;;;19.44;100.00;99298.72;1726677;82;21095;-71
2022/08/27 03:40:44;;;;;;;15.63;11.35;;;;;;;19.42;100.00;99299.63;1714640;82;21664;-70
2022/08/27 03:43:12;;;;;;;18.70;12.00;;;;;;;19.38;100.00;99301.66;1713305;82;21596;-71
2022/08/27 03:45:42;;;;;;;16.75;11.28;;;;;;;19.36;100.00;99304.53;1726591;82;21055;-70
2022/08/27 03:48:09;;;;;;;19.20;12.45;;;;;;;19.33;100.00;99301.89;1728526;82;21071;-70
2022/08/27 03:50:39;;;;;;;17.65;10.45;;;;;;;19.32;100.00;99302.21;1738176;82;21102;-71
2022/08/27 03:53:06;;;;;;;15.05;10.08;;;;;;;19.32;100.00;99300.27;1725657;82;21071;-70
2022/08/27 03:55:32;;;;;;;15.48;10.70;;;;;;;19.34;100.00;99297.95;1737731;82;21653;-71
2022/08/27 03:57:58;;;;;;;15.30;11.10;;;;;;;19.37;100.00;99289.02;1738659;82;21010;-71
2022/08/27 04:00:26;;;;;;;19.20;10.80;;;;;;;19.40;100.00;99293.05;1744502;82;21007;-71
2022/08/27 04:02:53;;;;;;;12.58;9.98;;;;;;;19.43;100.00;99294.34;1735376;82;21844;-71
2022/08/27 04:05:20;;;;;;;14.45;8.60;;;;;;;19.43;100.00;99293.77;1731018;82;21011;-71
2022/08/27 04:07:47;;;;;;;12.90;7.85;;;;;;;19.44;100.00;99291.25;1737872;82;21042;-70
2022/08/27 04:10:15;;;;;;;12.05;7.90;;;;;;;19.49;100.00;99291.59;1737969;82;21399;-71
2022/08/27 04:12:42;;;;;;;10.20;7.30;;;;;;;19.51;100.00;99291.50;1741836;82;21144;-71
2022/08/27 04:15:10;;;;;;;13.85;7.80;;;;;;;19.56;100.00;99289.08;1724540;82;21169;-71
2022/08/27 04:17:38;;;;;;;10.93;7.33;;;;;;;19.59;100.00;99287.81;1733019;82;21058;-70
2022/08/27 04:20:05;;;;;;;11.48;7.50;;;;;;;19.61;100.00;99286.11;1730413;82;20975;-72
2022/08/27 04:22:33;;;;;;;14.25;7.60;;;;;;;19.64;100.00;99290.94;1738057;82;21114;-72
2022/08/27 04:24:59;;;;;;;15.05;8.10;;;;;;;19.69;100.00;99293.50;1723902;82;21613;-72
2022/08/27 04:27:26;;;;;;;12.50;7.70;;;;;;;19.70;100.00;99284.05;1725792;82;21074;-72
2022/08/27 04:29:57;;;;;;;18.60;8.13;;;;;;;19.75;100.00;99286.02;1734104;82;20967;-71
2022/08/27 04:32:24;;;;;;;16.23;7.05;;;;;;;19.77;100.00;99285.09;1734986;82;21035;-72
2022/08/27 04:34:57;;;;;;;13.98;7.60;;;;;;;19.79;100.00;99281.43;1725126;82;20959;-71
2022/08/27 04:37:23;;;;;;;15.38;7.58;;;;;;;19.86;100.00;99279.48;1730823;82;21589;-71
2022/08/27 04:39:50;;;;;;;14.05;7.08;;;;;;;19.96;100.00;99275.45;1728309;82;21459;-71
2022/08/27 04:42:20;;;;;;;12.58;6.62;;;;;;;20.06;100.00;99267.50;1731136;82;21046;-71
2022/08/27 04:44:46;;;;;;;9.98;6.67;;;;;;;20.17;100.00;99269.23;1732699;82;20954;-71
2022/08/27 04:47:13;;;;;;;13.48;7.65;;;;;;;20.28;100.00;99265.69;1722540;81;21046;-71
2022/08/27 04:49:40;;;;;;;10.93;6.62;;;;;;;20.38;100.00;99266.36;1726623;82;20987;-71
2022/08/27 04:52:06;;;;;;;11.85;7.08;;;;;;;20.47;100.00;99263.72;1723639;82;21058;-71
2022/08/27 04:54:33;;;;;;;12.23;7.15;;;;;;;20.60;100.00;99261.72;1738500;82;20974;-71
2022/08/27 04:57:01;;;;;;;12.98;7.50;;;;;;;20.73;100.00;99260.52;1747536;82;21015;-71
2022/08/27 04:59:29;;;;;;;14.95;7.45;;;;;;;20.88;100.00;99268.66;1752029;82;20978;-70
2022/08/27 05:01:56;;;;;;;9.93;7.17;;;;;;;21.05;100.00;99259.48;1741208;82;21062;-70
2022/08/27 05:04:22;;;;;;;9.25;6.80;;;;;;;21.21;100.00;99260.95;1746376;82;21038;-70
2022/08/27 05:06:49;;;;;;;12.23;6.67;;;;;;;21.27;100.00;99249.84;1721489;82;21070;-71
2022/08/27 05:09:16;;;;;;;10.60;6.53;;;;;;;21.39;100.00;99262.25;1746925;82;21537;-71
2022/08/27 05:11:43;;;;;;;12.75;7.10;;;;;;;21.43;100.00;99263.16;1734795;82;21113;-71
2022/08/27 05:14:12;;;;;;;12.18;6.72;;;;;;;21.46;100.00;99252.75;1729989;82;21062;-69
2022/08/27 05:16:39;;;;;;;11.57;6.30;;;;;;;21.49;100.00;99256.77;1727028;82;21042;-71
2022/08/27 05:19:07;;;;;;;14.07;7.10;;;;;;;21.44;100.00;99250.90;1725957;82;21590;-70
2022/08/27 05:21:37;;;;;;;13.48;7.00;;;;;;;21.37;100.00;99251.28;1739492;82;21086;-70
2022/08/27 05:24:05;;;;;;;11.97;7.10;;;;;;;21.30;100.00;99251.33;1697842;84;20987;-71
2022/08/27 05:26:32;;;;;;;13.35;7.15;;;;;;;21.23;100.00;99249.75;1740775;81;21553;-71
2022/08/27 05:28:59;;;;;;;15.13;6.85;;;;;;;21.18;100.00;99249.21;1726605;82;20976;-71
2022/08/27 05:31:26;;;;;;;14.30;7.85;;;;;;;21.13;100.00;99249.45;1730267;82;21568;-71
2022/08/27 05:33:55;;;;;;;11.75;7.20;;;;;;;21.11;100.00;99249.02;1730878;82;21075;-70
2022/08/27 05:36:28;;;;;;;12.35;7.47;;;;;;;21.06;100.00;99251.99;1740527;82;21494;-70
2022/08/27 05:38:56;;;;;;;15.43;7.78;;;;;;;21.04;100.00;99250.98;1744259;82;21036;-69
2022/08/27 05:41:26;;;;;;;13.48;7.28;;;;;;;21.05;100.00;99265.59;1723525;82;21047;-71
2022/08/27 05:43:53;;;;;;;14.85;8.30;;;;;;;21.04;100.00;99276.45;1726856;82;20980;-70
2022/08/27 05:46:21;;;;;;;14.68;7.50;;;;;;;21.02;100.00;99274.03;1741984;82;21650;-70
2022/08/27 05:48:49;;;;;;;12.95;7.35;;;;;;;21.00;100.00;99270.82;1728870;82;21019;-70
2022/08/27 05:51:24;;;;;;;14.70;7.00;;;;;;;20.99;100.00;99276.13;1727455;82;21083;-68
2022/08/27 05:54:06;;;;;;;12.95;6.87;;;;;;;21.01;100.00;99279.94;1729402;82;21378;-68
2022/08/27 05:56:35;;;;;;;12.98;7.30;;;;;;;21.05;100.00;99276.66;1728107;82;21656;-68
2022/08/27 06:01:49;;;;;;;13.88;7.17;;;;;;;21.09;100.00;99274.80;1729665;82;21710;-71
2022/08/27 06:04:16;;;;;;;12.33;7.37;;;;;;;21.14;100.00;99275.98;1737187;82;21035;-70
2022/08/27 06:06:43;;;;;;;15.70;7.67;;;;;;;21.18;100.00;99274.12;1734079;82;21573;-70
2022/08/27 06:09:12;;;;;;;13.35;7.08;;;;;;;21.25;100.00;99275.13;1730753;82;21373;-69
2022/08/27 06:11:40;;;;;;;14.30;6.72;;;;;;;21.31;100.00;99273.70;1688755;83;21043;-69
2022/08/27 06:14:07;;;;;;;11.53;6.75;;;;;;;21.39;100.00;99273.90;1718365;82;21007;-71
2022/08/27 06:16:34;;;;;;;12.23;6.75;;;;;;;21.53;100.00;99269.55;1727469;82;21641;-68
2022/08/27 06:19:00;;;;;;;9.33;6.80;;;;;;;21.55;100.00;99272.76;1736997;82;21019;-69
2022/08/27 06:21:27;;;;;;;13.35;6.50;;;;;;;21.68;100.00;99288.12;1731455;82;21015;-70
2022/08/27 06:23:53;;;;;;;12.88;7.28;;;;;;;21.79;100.00;99285.63;1716866;83;21094;-70
2022/08/27 06:26:21;;;;;;;10.82;6.90;;;;;;;21.88;100.00;99284.89;1719084;82;21526;-70
2022/08/27 06:28:48;;;;;;;13.22;7.00;;;;;;;21.94;100.00;99280.72;1734812;82;20991;-70
2022/08/27 06:31:21;;;;;;;13.28;7.20;;;;;;;21.97;100.00;99275.84;1733674;82;21034;-71
2022/08/27 06:33:49;;;;;;;15.83;7.50;;;;;;;22.02;100.00;99278.93;1746508;82;21071;-70
2022/08/27 06:36:19;;;;;;;13.10;7.50;;;;;;;22.04;100.00;99276.02;1733603;82;21063;-71
2022/08/27 06:38:46;;;;;;;13.38;7.42;;;;;;;22.02;100.00;99266.46;1724952;82;21015;-70
2022/08/27 06:41:14;;;;;;;14.83;7.37;;;;;;;22.10;100.00;99267.67;1716589;83;21028;-70
2022/08/27 06:43:41;;;;;;;13.32;7.35;;;;;;;22.16;100.00;99266.23;1715923;82;21058;-72
2022/08/27 06:46:11;;;;;;;15.53;7.35;;;;;;;22.25;100.00;99266.02;1720478;82;21078;-71
2022/08/27 06:48:39;;;;;;;21.30;7.95;;;;;;;22.30;100.00;99267.14;1740030;82;21038;-71
2022/08/27 06:51:11;;;;;;;12.45;7.28;;;;;;;22.32;100.00;99264.22;1725032;82;21023;-71
2022/08/27 06:53:39;;;;;;;15.03;7.22;;;;;;;22.36;100.00;99270.42;1724179;82;21605;-71
2022/08/27 06:56:06;;;;;;;9.93;6.67;;;;;;;22.39;100.00;99273.28;1744347;82;21086;-71
2022/08/27 06:58:33;;;;;;;14.87;7.45;;;;;;;22.41;100.00;99275.70;1730351;82;21578;-71
2022/08/27 07:01:00;;;;;;;12.80;6.50;;;;;;;22.44;100.00;99274.98;1722483;83;21032;-71
2022/08/27 07:03:26;;;;;;;14.90;6.97;;;;;;;22.46;100.00;99272.05;1723484;82;21074;-71
2022/08/27 07:05:53;;;;;;;13.83;6.60;;;;;;;22.50;100.00;99271.55;1724425;82;21039;-70
2022/08/27 07:08:20;;;;;;;14.05;6.70;;;;;;;22.54;100.00;99278.00;1725953;82;21055;-71
2022/08/27 07:10:46;;;;;;;12.63;6.92;;;;;;;22.53;100.00;99270.83;1738089;82;21102;-71
2022/08/27 07:13:13;;;;;;;13.32;6.58;;;;;;;22.55;100.00;99270.48;1727649;82;21014;-69
2022/08/27 07:15:41;;;;;;;10.38;6.70;;;;;;;22.59;100.00;99264.44;1731201;82;20983;-70
2022/08/27 07:18:07;;;;;;;10.88;7.15;;;;;;;22.60;100.00;99271.59;1736989;82;21023;-71
2022/08/27 07:20:35;;;;;;;14.45;7.62;;;;;;;22.59;100.00;99259.69;1732670;80;21022;-71
2022/08/27 07:23:02;;;;;;;13.43;6.72;;;;;;;22.59;100.00;99267.20;1672980;82;21030;-69
2022/08/27 07:25:30;;;;;;;10.63;6.70;;;;;;;22.57;100.00;99261.20;1732648;82;21411;-70
2022/08/27 07:27:57;;;;;;;10.43;6.20;;;;;;;22.58;100.00;99260.05;1725413;81;21621;-70
2022/08/27 07:30:24;;;;;;;13.58;7.08;;;;;;;22.56;100.00;99258.23;1702652;82;21155;-71
2022/08/27 07:32:51;;;;;;;13.65;6.67;;;;;;;22.55;100.00;99264.36;1732753;82;21059;-71
2022/08/27 07:35:18;;;;;;;10.98;6.30;;;;;;;22.57;100.00;99252.88;1727573;82;21568;-71
2022/08/27 07:37:44;;;;;;;12.23;6.33;;;;;;;22.58;100.00;99242.82;1725583;82;21090;-72
2022/08/27 07:40:14;;;;;;;12.23;6.58;;;;;;;22.62;100.00;99249.25;1721489;82;21129;-72
2022/08/27 07:45:26;;;;;;;13.30;6.50;;;;;;;22.71;100.00;99237.95;1730402;82;21632;-71
2022/08/27 07:47:53;;;;;;;13.78;6.62;;;;;;;22.74;100.00;99233.09;1727134;82;20995;-71
2022/08/27 07:50:22;;;;;;;13.85;6.42;;;;;;;22.95;100.00;99236.31;1718565;82;21194;-71
2022/08/27 07:52:51;;;;;;;11.28;6.03;;;;;;;22.95;100.00;99236.31;1733471;82;21011;-68
2022/08/27 07:55:17;;;;;;;11.50;5.33;;;;;;;23.06;100.00;99234.52;1730797;82;21086;-71
2022/08/27 07:57:44;;;;;;;14.98;5.83;;;;;;;23.16;100.00;99232.56;1720118;82;21550;-71
2022/08/27 08:00:11;;;;;;;12.65;5.75;;;;;;;23.29;100.00;99238.17;1727888;82;21669;-71
2022/08/27 08:02:43;;;;;;;15.15;6.15;;;;;;;23.39;100.00;99238.14;1731923;82;20960;-71
2022/08/27 08:05:11;;;;;;;13.10;5.67;;;;;;;23.48;100.00;99238.75;1679213;82;21087;-71
2022/08/27 08:07:38;;;;;;;13.03;5.80;;;;;;;23.60;100.00;99234.38;1718177;82;21054;-69
2022/08/27 08:10:06;;;;;;;11.50;5.78;;;;;;;23.70;100.00;99242.10;1725224;82;21553;-71
2022/08/27 08:12:37;;;;;;;10.98;5.28;;;;;;;23.83;100.00;99236.36;1712878;82;20986;-71
2022/08/27 08:15:06;;;;;;;13.55;5.40;;;;;;;23.91;100.00;99236.70;1725430;82;21051;-69
2022/08/27 08:17:34;;;;;;;10.38;5.55;;;;;;;23.97;100.00;99229.65;1703632;82;21479;-68
2022/08/27 08:20:01;;;;;;;11.05;5.53;;;;;;;24.10;100.00;99229.06;1741820;80;21071;-67
2022/08/27 08:22:28;;;;;;;13.03;5.30;;;;;;;24.14;100.00;99239.69;1721754;82;20967;-68
2022/08/27 08:24:54;;;;;;;9.20;4.80;;;;;;;24.25;100.00;99233.70;1716765;82;21019;-68
2022/08/27 08:27:20;;;;;;;10.40;4.97;;;;;;;24.38;100.00;99233.47;1742703;82;20984;-69
2022/08/27 08:29:47;;;;;;;12.63;5.17;;;;;;;24.51;100.00;99237.07;1665139;85;21045;-69
2022/08/27 08:32:14;;;;;;;11.60;5.53;;;;;;;24.63;100.00;99224.88;1675222;85;20984;-69
2022/08/27 08:34:41;;;;;;;12.50;5.25;;;;;;;24.68;100.00;99223.98;1671030;85;20992;-69
2022/08/27 08:37:07;;;;;;;10.48;4.70;;;;;;;24.71;100.00;99223.80;1662822;85;21146;-69
2022/08/27 08:39:35;;;;;;;9.43;5.17;;;;;;;24.78;100.00;99219.13;1686823;85;21040;-70
2022/08/27 08:42:04;;;;;;;11.12;5.97;;;;;;;24.86;100.00;99219.25;1680272;85;21127;-69
2022/08/27 08:44:38;;;;;;;10.50;5.08;;;;;;;24.87;100.00;99209.73;1667971;84;21075;-68
2022/08/27 08:47:33;;;;;;;10.78;4.90;;;;;;;24.86;100.00;99213.69;1690201;85;21550;-69
2022/08/27 08:50:24;;;;;;;14.95;5.20;;;;;;;24.85;100.00;99206.51;1700834;84;21061;-68
2022/08/27 08:53:25;;;;;;;16.80;5.10;;;;;;;24.82;100.00;99208.05;1681445;84;21350;-70
2022/08/27 08:55:55;;;;;;;12.88;5.00;;;;;;;24.77;100.00;99201.41;1702578;83;21166;-69
2022/08/27 08:59:03;;;;;;;11.55;5.03;;;;;;;24.70;100.00;99209.08;1676552;85;21034;-69
2022/08/27 09:01:29;;;;;;;;;;;;;;;24.70;100.00;99199.34;1691961;83;21608;-70
2022/08/27 09:03:59;;;;;;;15.00;4.70;;;;;;;24.74;100.00;99204.95;1686808;84;20145;-70
2022/08/27 09:06:34;;;;;;;12.35;4.78;;;;;;;24.69;100.00;99206.70;1690765;84;21089;-70
2022/08/27 09:09:24;;;;;;;10.93;4.67;;;;;;;24.67;100.00;99205.67;1691823;84;21587;-71
2022/08/27 09:12:14;;;;;;;10.80;4.78;;;;;;;24.70;100.00;99204.91;1679044;84;21158;-68
2022/08/27 09:15:03;;;;;;;9.70;4.62;;;;;;;24.75;100.00;99201.00;1657316;86;21106;-69
2022/08/27 09:17:29;;;;;;;13.25;4.30;;;;;;;24.77;100.00;99202.21;1650540;84;21066;-71
2022/08/27 09:19:56;;;;;;;9.63;4.33;;;;;;;24.84;100.00;99204.31;1693902;84;21130;-71
2022/08/27 09:22:53;;;;;;;8.58;4.33;;;;;;;24.92;100.00;99203.80;1690978;84;21525;-71
2022/08/27 09:25:24;;;;;;;;;;;;;;;24.96;100.00;99204.06;1689005;84;21451;-70
2022/08/27 09:27:51;;;;;;;9.48;4.62;;;;;;;24.98;97.60;99205.88;1698345;84;20216;-69
2022/08/27 09:30:23;;;;;;;8.58;4.40;;;;;;;24.92;98.25;99212.97;1677363;84;21105;-70
2022/08/27 09:32:57;;;;;;;8.23;4.33;;;;;;;24.98;94.64;99211.44;1688633;84;21618;-71
2022/08/27 09:35:25;;;;;;;12.37;4.05;;;;;;;25.05;94.70;99216.28;1682198;84;21610;-70
2022/08/27 09:37:54;;;;;;;10.45;3.90;;;;;;;25.12;91.69;99217.75;1689955;84;21042;-71
2022/08/27 09:40:30;;;;;;;12.40;4.20;;;;;;;25.15;90.73;99218.41;1683490;84;21596;-69
2022/08/27 09:43:03;;;;;;;;;;;;;;;25.16;87.37;99215.81;1689307;84;20995;-68
2022/08/27 09:45:30;;;;;;;9.35;4.05;;;;;;;25.17;89.19;99215.45;1702509;84;20150;-69
2022/08/27 09:48:09;;;;;;;10.28;3.92;;;;;;;25.11;89.77;99221.16;1701973;84;21008;-71
2022/08/27 09:50:43;;;;;;;8.38;4.00;;;;;;;25.15;86.75;99221.20;1672304;85;22009;-71
2022/08/27 09:53:25;;;;;;;8.00;4.17;;;;;;;25.18;87.83;99219.84;1697791;84;21514;-69
2022/08/27 09:55:59;;;;;;;8.40;4.20;;;;;;;25.23;86.39;99216.70;1704051;84;21870;-69
2022/08/27 09:58:52;;;;;;;9.08;4.42;;;;;;;25.29;87.01;99210.80;1704848;84;20990;-70
2022/08/27 10:03:07;;;;;;;12.05;4.22;;;;;;;25.49;91.18;99208.81;1878400;75;22767;-68
2022/08/27 10:05:45;;;;;;;8.75;4.40;;;;;;;25.46;88.25;99205.98;1853473;75;21079;-70
2022/08/27 10:08:27;;;;;;;15.72;4.30;;;;;;;25.51;87.54;99209.83;1811080;76;21008;-69
2022/08/27 10:11:01;;;;;;;11.85;4.65;;;;;;;25.60;89.54;99205.56;1851840;77;21114;-70
2022/08/27 10:13:41;;;;;;;10.15;4.83;;;;;;;25.74;84.81;99203.48;1837398;77;21551;-68
2022/08/27 10:16:46;;;;;;;10.43;4.72;;;;;;;25.88;87.22;99202.80;1824394;77;21776;-68
2022/08/27 10:19:48;;;;;;;9.93;4.62;;;;;;;26.10;87.43;99203.97;1831002;77;21020;-67
2022/08/27 10:22:49;;;;;;;13.62;5.25;;;;;;;26.29;87.90;99193.77;1822393;77;21118;-71
2022/08/27 10:25:36;;;;;;;10.75;5.05;;;;;;;26.57;88.35;99198.11;1846020;77;21024;-70
2022/08/27 10:28:37;;;;;;;;;;;;;;;26.77;82.38;99198.00;1834637;77;20992;-70
2022/08/27 10:31:38;;;;;;;12.10;4.65;;;;;;;26.90;83.27;99195.66;1724460;82;20095;-69
2022/08/27 10:34:36;;;;;;;9.43;5.03;;;;;;;26.92;82.95;99187.13;1837268;77;21031;-73
2022/08/27 10:37:33;;;;;;;13.95;5.00;;;;;;;27.06;81.83;99188.56;1836919;77;21051;-70
2022/08/27 10:40:28;;;;;;;10.03;5.10;;;;;;;27.20;83.44;99187.20;1826627;77;21432;-71
2022/08/27 10:43:03;;;;;;;11.10;5.53;;;;;;;27.37;78.92;99192.61;1841367;76;21563;-69
2022/08/27 10:45:50;;;;;;;16.55;5.10;;;;;;;27.50;75.57;99193.05;1831707;77;21016;-68
2022/08/27 10:48:27;;;;;;;15.08;4.92;;;;;;;27.55;79.58;99189.87;1835317;77;21475;-72
2022/08/27 10:51:03;;;;;;;18.80;4.92;;;;;;;27.69;79.86;99194.88;1839493;76;21657;-68
2022/08/27 10:53:36;;;;;;;;;;;;;;;27.88;77.81;99191.48;1850066;76;21479;-70
2022/08/27 10:56:36;;;;;;;13.95;4.90;;;;;;;28.05;75.09;99201.86;1836009;77;20109;-70
2022/08/27 10:59:24;;;;;;;17.65;5.65;;;;;;;28.08;77.86;99201.08;1822676;76;20988;-70
2022/08/27 11:02:01;;;;;;;15.80;5.03;;;;;;;28.15;73.03;99197.67;1848419;77;21090;-69
2022/08/27 11:04:31;;;;;;;14.18;5.05;;;;;;;28.30;69.63;99201.84;1821321;75;21454;-71
2022/08/27 11:07:07;;;;;;;14.53;5.12;;;;;;;28.49;67.32;99192.38;1839449;77;20989;-69
2022/08/27 11:09:38;;;;;;;19.62;4.78;;;;;;;28.66;66.20;99194.33;1851736;77;21012;-72
2022/08/27 11:12:09;;;;;;;22.32;3.55;;;;;;;28.86;58.25;99191.89;1823752;76;21011;-70
2022/08/27 11:14:45;;;;;;;20.70;4.45;;;;;;;29.09;49.35;99185.16;1824933;78;20996;-71
2022/08/27 11:17:37;;;;;;;15.32;4.05;;;;;;;29.30;47.34;99200.30;1851327;77;21035;-69
2022/08/27 11:20:15;;;;;;;14.45;3.50;;;;;;;29.43;46.02;99190.20;1829257;77;20936;-69
2022/08/27 11:25:46;;;;;;;13.70;3.00;;;;;;;29.67;38.98;99187.00;1670000;83;21205;-68
2022/08/27 11:28:12;;;;;;;14.33;3.27;;;;;;;29.75;37.28;99178.13;1618673;87;21575;-67
2022/08/27 11:31:14;;;;;;;21.35;3.83;;;;;;;29.81;37.87;99178.47;1688628;83;21050;-71
2022/08/27 11:33:59;;;;;;;17.35;4.22;;;;;;;29.87;38.27;99179.05;1696146;83;21101;-69
2022/08/27 11:37:01;;;;;;;14.43;5.15;;;;;;;30.01;39.47;99174.70;1696687;83;21007;-68
2022/08/27 11:39:53;;;;;;;17.52;4.03;;;;;;;30.14;41.65;99175.00;1686144;83;21763;-68
2022/08/27 11:42:40;;;;;;;15.23;4.22;;;;;;;30.30;42.02;99182.84;1694271;83;21011;-70
2022/08/27 11:45:23;;;;;;;15.13;3.70;;;;;;;30.35;38.96;99176.78;1701036;83;21011;-70
2022/08/27 11:47:54;;;;;;;23.95;4.67;;;;;;;30.32;39.89;99179.02;1697268;83;21596;-70